sensor_id;sensor_type;location;lat;lon;timestamp;temperature;humidity
4856;DHT22;2442;48.676;7.986;2022-10-16T00:00:40;15.60;99.90
4856;DHT22;2442;48.676;7.986;2022-10-16T00:03:08;15.60;99.90
4856;DHT22;2442;48.676;7.986;2022-10-16T00:05:40;15.60;99.90
4856;DHT22;2442;48.676;7.986;2022-10-16T00:08:09;15.60;99.90
4856;DHT22;2442;48.676;7.986;2022-10-16T00:10:37;15.60;99.90
4856;DHT22;2442;48.676;7.986;2022-10-16T00:13:04;15.60;99.90
4856;DHT22;2442;48.676;7.986;2022-10-16T00:15:33;15.70;99.90
4856;DHT22;2442;48.676;7.986;2022-10-16T00:18:02;15.70;99.90
4856;DHT22;2442;48.676;7.986;2022-10-16T00:20:30;15.70;99.90
4856;DHT22;2442;48.676;7.986;2022-10-16T00:23:00;15.60;99.90
4856;DHT22;2442;48.676;7.986;2022-10-16T00:25:28;15.70;99.90
4856;DHT22;2442;48.676;7.986;2022-10-16T00:27:58;15.60;99.90
4856;DHT22;2442;48.676;7.986;2022-10-16T00:30:25;15.60;99.90
4856;DHT22;2442;48.676;7.986;2022-10-16T00:32:53;15.60;99.90
4856;DHT22;2442;48.676;7.986;2022-10-16T00:35:20;15.60;99.90
4856;DHT22;2442;48.676;7.986;2022-10-16T00:37:47;15.60;99.90
4856;DHT22;2442;48.676;7.986;2022-10-16T00:40:16;15.60;99.90
4856;DHT22;2442;48.676;7.986;2022-10-16T00:42:43;15.70;99.90
4856;DHT22;2442;48.676;7.986;2022-10-16T00:45:10;15.70;99.90
4856;DHT22;2442;48.676;7.986;2022-10-16T00:47:40;15.70;99.90
4856;DHT22;2442;48.676;7.986;2022-10-16T00:50:15;15.70;99.90
4856;DHT22;2442;48.676;7.986;2022-10-16T00:52:46;15.70;99.90
4856;DHT22;2442;48.676;7.986;2022-10-16T00:55:16;15.70;99.90
4856;DHT22;2442;48.676;7.986;2022-10-16T00:57:44;15.70;99.90
4856;DHT22;2442;48.676;7.986;2022-10-16T01:00:15;15.70;99.90
4856;DHT22;2442;48.676;7.986;2022-10-16T01:02:44;15.60;99.90
4856;DHT22;2442;48.676;7.986;2022-10-16T01:05:11;15.60;99.90
4856;DHT22;2442;48.676;7.986;2022-10-16T01:07:47;15.60;99.90
4856;DHT22;2442;48.676;7.986;2022-10-16T01:10:26;15.70;99.90
4856;DHT22;2442;48.676;7.986;2022-10-16T01:13:01;15.70;99.90
4856;DHT22;2442;48.676;7.986;2022-10-16T01:15:35;15.80;99.90
4856;DHT22;2442;48.676;7.986;2022-10-16T01:18:10;15.70;99.90
4856;DHT22;2442;48.676;7.986;2022-10-16T01:20:44;15.70;99.90
4856;DHT22;2442;48.676;7.986;2022-10-16T01:23:21;15.70;99.90
4856;DHT22;2442;48.676;7.986;2022-10-16T01:26:14;15.70;99.90
4856;DHT22;2442;48.676;7.986;2022-10-16T01:29:06;15.70;99.90
4856;DHT22;2442;48.676;7.986;2022-10-16T01:31:38;15.70;99.90
4856;DHT22;2442;48.676;7.986;2022-10-16T01:34:09;15.70;99.90
4856;DHT22;2442;48.676;7.986;2022-10-16T01:36:45;15.70;99.90
4856;DHT22;2442;48.676;7.986;2022-10-16T01:39:20;15.60;99.90
4856;DHT22;2442;48.676;7.986;2022-10-16T01:41:54;15.60;99.90
4856;DHT22;2442;48.676;7.986;2022-10-16T01:44:26;15.50;99.90
4856;DHT22;2442;48.676;7.986;2022-10-16T01:46:55;15.50;99.90
4856;DHT22;2442;48.676;7.986;2022-10-16T01:49:25;15.50;99.90
4856;DHT22;2442;48.676;7.986;2022-10-16T01:51:57;15.50;99.90
4856;DHT22;2442;48.676;7.986;2022-10-16T01:54:27;15.50;99.90
4856;DHT22;2442;48.676;7.986;2022-10-16T01:56:57;15.50;99.90
4856;DHT22;2442;48.676;7.986;2022-10-16T01:59:30;15.50;99.90
4856;DHT22;2442;48.676;7.986;2022-10-16T02:02:00;15.50;99.90
4856;DHT22;2442;48.676;7.986;2022-10-16T02:04:34;15.50;99.90
4856;DHT22;2442;48.676;7.986;2022-10-16T02:07:03;15.50;99.90
4856;DHT22;2442;48.676;7.986;2022-10-16T02:09:32;15.40;99.90
4856;DHT22;2442;48.676;7.986;2022-10-16T02:12:03;15.40;99.90
4856;DHT22;2442;48.676;7.986;2022-10-16T02:14:38;15.40;99.90
4856;DHT22;2442;48.676;7.986;2022-10-16T02:17:11;15.40;99.90
4856;DHT22;2442;48.676;7.986;2022-10-16T02:19:39;15.40;99.90
4856;DHT22;2442;48.676;7.986;2022-10-16T02:22:09;15.30;99.90
4856;DHT22;2442;48.676;7.986;2022-10-16T02:24:49;15.30;99.90
4856;DHT22;2442;48.676;7.986;2022-10-16T02:27:25;15.30;99.90
4856;DHT22;2442;48.676;7.986;2022-10-16T02:30:00;15.30;99.90
4856;DHT22;2442;48.676;7.986;2022-10-16T02:32:35;15.30;99.90
4856;DHT22;2442;48.676;7.986;2022-10-16T02:35:04;15.30;99.90
4856;DHT22;2442;48.676;7.986;2022-10-16T02:37:33;15.30;99.90
4856;DHT22;2442;48.676;7.986;2022-10-16T02:40:01;15.40;99.90
4856;DHT22;2442;48.676;7.986;2022-10-16T02:42:34;15.30;99.90
4856;DHT22;2442;48.676;7.986;2022-10-16T02:45:05;15.30;99.90
4856;DHT22;2442;48.676;7.986;2022-10-16T02:47:32;15.30;99.90
4856;DHT22;2442;48.676;7.986;2022-10-16T02:50:00;15.10;99.90
4856;DHT22;2442;48.676;7.986;2022-10-16T02:52:27;15.20;99.90
4856;DHT22;2442;48.676;7.986;2022-10-16T02:54:54;15.10;99.90
4856;DHT22;2442;48.676;7.986;2022-10-16T02:57:21;15.10;99.90
4856;DHT22;2442;48.676;7.986;2022-10-16T02:59:48;15.10;99.90
4856;DHT22;2442;48.676;7.986;2022-10-16T03:02:16;15.10;99.90
4856;DHT22;2442;48.676;7.986;2022-10-16T03:04:43;15.10;99.90
4856;DHT22;2442;48.676;7.986;2022-10-16T03:07:10;15.10;99.90
4856;DHT22;2442;48.676;7.986;2022-10-16T03:09:38;15.10;99.90
4856;DHT22;2442;48.676;7.986;2022-10-16T03:12:05;15.10;99.90
4856;DHT22;2442;48.676;7.986;2022-10-16T03:14:32;15.10;99.90
4856;DHT22;2442;48.676;7.986;2022-10-16T03:16:59;15.10;99.90
4856;DHT22;2442;48.676;7.986;2022-10-16T03:19:28;15.10;99.90
4856;DHT22;2442;48.676;7.986;2022-10-16T03:21:55;15.20;99.90
4856;DHT22;2442;48.676;7.986;2022-10-16T03:24:22;15.20;99.90
4856;DHT22;2442;48.676;7.986;2022-10-16T03:26:49;15.20;99.90
4856;DHT22;2442;48.676;7.986;2022-10-16T03:29:16;15.10;99.90
4856;DHT22;2442;48.676;7.986;2022-10-16T03:31:43;15.10;99.90
4856;DHT22;2442;48.676;7.986;2022-10-16T03:34:10;15.10;99.90
4856;DHT22;2442;48.676;7.986;2022-10-16T03:36:38;15.20;99.90
4856;DHT22;2442;48.676;7.986;2022-10-16T03:39:05;15.20;99.90
4856;DHT22;2442;48.676;7.986;2022-10-16T03:41:32;15.10;99.90
4856;DHT22;2442;48.676;7.986;2022-10-16T03:43:59;15.10;99.90
4856;DHT22;2442;48.676;7.986;2022-10-16T03:46:26;15.20;99.90
4856;DHT22;2442;48.676;7.986;2022-10-16T03:48:53;15.10;99.90
4856;DHT22;2442;48.676;7.986;2022-10-16T03:51:20;15.10;99.90
4856;DHT22;2442;48.676;7.986;2022-10-16T03:53:49;15.10;99.90
4856;DHT22;2442;48.676;7.986;2022-10-16T03:56:16;15.20;99.90
4856;DHT22;2442;48.676;7.986;2022-10-16T03:58:43;15.10;99.90
4856;DHT22;2442;48.676;7.986;2022-10-16T04:01:10;15.10;99.90
4856;DHT22;2442;48.676;7.986;2022-10-16T04:03:38;15.10;99.90
4856;DHT22;2442;48.676;7.986;2022-10-16T04:06:05;15.10;99.90
4856;DHT22;2442;48.676;7.986;2022-10-16T04:08:32;15.10;99.90
4856;DHT22;2442;48.676;7.986;2022-10-16T04:11:02;15.10;99.90
4856;DHT22;2442;48.676;7.986;2022-10-16T04:13:29;15.10;99.90
4856;DHT22;2442;48.676;7.986;2022-10-16T04:15:56;15.10;99.90
4856;DHT22;2442;48.676;7.986;2022-10-16T04:18:23;15.10;99.90
4856;DHT22;2442;48.676;7.986;2022-10-16T04:20:52;15.10;99.90
4856;DHT22;2442;48.676;7.986;2022-10-16T04:23:19;15.10;99.90
4856;DHT22;2442;48.676;7.986;2022-10-16T04:25:48;15.10;99.90
4856;DHT22;2442;48.676;7.986;2022-10-16T04:28:16;15.10;99.90
4856;DHT22;2442;48.676;7.986;2022-10-16T04:30:43;15.20;99.90
4856;DHT22;2442;48.676;7.986;2022-10-16T04:33:10;15.10;99.90
4856;DHT22;2442;48.676;7.986;2022-10-16T04:35:38;15.10;99.90
4856;DHT22;2442;48.676;7.986;2022-10-16T04:38:05;15.20;99.90
4856;DHT22;2442;48.676;7.986;2022-10-16T04:40:32;15.20;99.90
4856;DHT22;2442;48.676;7.986;2022-10-16T04:43:01;15.10;99.90
4856;DHT22;2442;48.676;7.986;2022-10-16T04:45:30;15.10;99.90
4856;DHT22;2442;48.676;7.986;2022-10-16T04:47:57;15.10;99.90
4856;DHT22;2442;48.676;7.986;2022-10-16T04:50:24;15.20;99.90
4856;DHT22;2442;48.676;7.986;2022-10-16T04:52:52;15.20;99.90
4856;DHT22;2442;48.676;7.986;2022-10-16T04:55:19;15.20;99.90
4856;DHT22;2442;48.676;7.986;2022-10-16T04:57:46;15.10;99.90
4856;DHT22;2442;48.676;7.986;2022-10-16T05:00:13;15.10;99.90
4856;DHT22;2442;48.676;7.986;2022-10-16T05:02:41;15.10;99.90
4856;DHT22;2442;48.676;7.986;2022-10-16T05:05:08;15.10;99.90
4856;DHT22;2442;48.676;7.986;2022-10-16T05:07:35;15.10;99.90
4856;DHT22;2442;48.676;7.986;2022-10-16T05:10:03;15.10;99.90
4856;DHT22;2442;48.676;7.986;2022-10-16T05:12:31;15.10;99.90
4856;DHT22;2442;48.676;7.986;2022-10-16T05:14:59;15.10;99.90
4856;DHT22;2442;48.676;7.986;2022-10-16T05:17:26;15.20;99.90
4856;DHT22;2442;48.676;7.986;2022-10-16T05:19:55;15.20;99.90
4856;DHT22;2442;48.676;7.986;2022-10-16T05:22:22;15.20;99.90
4856;DHT22;2442;48.676;7.986;2022-10-16T05:24:49;15.20;99.90
4856;DHT22;2442;48.676;7.986;2022-10-16T05:27:16;15.10;99.90
4856;DHT22;2442;48.676;7.986;2022-10-16T05:29:45;15.10;99.90
4856;DHT22;2442;48.676;7.986;2022-10-16T05:32:13;15.10;99.90
4856;DHT22;2442;48.676;7.986;2022-10-16T05:34:40;15.00;99.90
4856;DHT22;2442;48.676;7.986;2022-10-16T05:37:09;15.10;99.90
4856;DHT22;2442;48.676;7.986;2022-10-16T05:39:37;15.00;99.90
4856;DHT22;2442;48.676;7.986;2022-10-16T05:42:04;15.10;99.90
4856;DHT22;2442;48.676;7.986;2022-10-16T05:44:32;15.00;99.90
4856;DHT22;2442;48.676;7.986;2022-10-16T05:46:59;15.00;99.90
4856;DHT22;2442;48.676;7.986;2022-10-16T05:49:26;15.10;99.90
4856;DHT22;2442;48.676;7.986;2022-10-16T05:51:53;15.20;99.90
4856;DHT22;2442;48.676;7.986;2022-10-16T05:54:22;15.10;99.90
4856;DHT22;2442;48.676;7.986;2022-10-16T05:56:49;15.10;99.90
4856;DHT22;2442;48.676;7.986;2022-10-16T05:59:16;15.00;99.90
4856;DHT22;2442;48.676;7.986;2022-10-16T06:01:43;15.10;99.90
4856;DHT22;2442;48.676;7.986;2022-10-16T06:04:10;15.00;99.90
4856;DHT22;2442;48.676;7.986;2022-10-16T06:06:37;15.00;99.90
4856;DHT22;2442;48.676;7.986;2022-10-16T06:09:04;15.00;99.90
4856;DHT22;2442;48.676;7.986;2022-10-16T06:11:33;15.00;99.90
4856;DHT22;2442;48.676;7.986;2022-10-16T06:14:01;15.00;99.90
4856;DHT22;2442;48.676;7.986;2022-10-16T06:16:33;14.90;99.90
4856;DHT22;2442;48.676;7.986;2022-10-16T06:19:00;15.00;99.90
4856;DHT22;2442;48.676;7.986;2022-10-16T06:21:28;14.90;99.90
4856;DHT22;2442;48.676;7.986;2022-10-16T06:23:56;14.90;99.90
4856;DHT22;2442;48.676;7.986;2022-10-16T06:26:26;14.90;99.90
4856;DHT22;2442;48.676;7.986;2022-10-16T06:28:56;14.90;99.90
4856;DHT22;2442;48.676;7.986;2022-10-16T06:31:24;14.90;99.90
4856;DHT22;2442;48.676;7.986;2022-10-16T06:33:53;14.90;99.90
4856;DHT22;2442;48.676;7.986;2022-10-16T06:36:21;15.00;99.90
4856;DHT22;2442;48.676;7.986;2022-10-16T06:38:49;15.00;99.90
4856;DHT22;2442;48.676;7.986;2022-10-16T06:41:18;15.00;99.90
4856;DHT22;2442;48.676;7.986;2022-10-16T06:43:46;15.00;99.90
4856;DHT22;2442;48.676;7.986;2022-10-16T06:46:17;15.00;99.90
4856;DHT22;2442;48.676;7.986;2022-10-16T06:48:45;15.00;99.90
4856;DHT22;2442;48.676;7.986;2022-10-16T06:51:13;15.10;99.90
4856;DHT22;2442;48.676;7.986;2022-10-16T06:53:42;15.10;99.90
4856;DHT22;2442;48.676;7.986;2022-10-16T06:56:12;15.10;99.90
4856;DHT22;2442;48.676;7.986;2022-10-16T06:58:41;15.10;99.90
4856;DHT22;2442;48.676;7.986;2022-10-16T07:01:10;15.10;99.90
4856;DHT22;2442;48.676;7.986;2022-10-16T07:03:39;15.20;99.90
4856;DHT22;2442;48.676;7.986;2022-10-16T07:06:09;15.20;99.90
4856;DHT22;2442;48.676;7.986;2022-10-16T07:08:40;15.20;99.90
4856;DHT22;2442;48.676;7.986;2022-10-16T07:11:09;15.20;99.90
4856;DHT22;2442;48.676;7.986;2022-10-16T07:13:38;15.30;99.90
4856;DHT22;2442;48.676;7.986;2022-10-16T07:16:07;15.30;99.90
4856;DHT22;2442;48.676;7.986;2022-10-16T07:18:36;15.30;99.90
4856;DHT22;2442;48.676;7.986;2022-10-16T07:21:08;15.30;99.90
4856;DHT22;2442;48.676;7.986;2022-10-16T07:23:36;15.30;99.90
4856;DHT22;2442;48.676;7.986;2022-10-16T07:26:04;15.30;99.90
4856;DHT22;2442;48.676;7.986;2022-10-16T07:28:32;15.40;99.90
4856;DHT22;2442;48.676;7.986;2022-10-16T07:31:02;15.40;99.90
4856;DHT22;2442;48.676;7.986;2022-10-16T07:33:30;15.40;99.90
4856;DHT22;2442;48.676;7.986;2022-10-16T07:35:58;15.50;99.90
4856;DHT22;2442;48.676;7.986;2022-10-16T07:38:26;15.50;99.90
4856;DHT22;2442;48.676;7.986;2022-10-16T07:40:57;15.60;99.90
4856;DHT22;2442;48.676;7.986;2022-10-16T07:43:26;15.60;99.90
4856;DHT22;2442;48.676;7.986;2022-10-16T07:45:54;15.70;99.90
4856;DHT22;2442;48.676;7.986;2022-10-16T07:48:22;15.70;99.90
4856;DHT22;2442;48.676;7.986;2022-10-16T07:50:50;15.70;99.90
4856;DHT22;2442;48.676;7.986;2022-10-16T07:53:17;15.80;99.90
4856;DHT22;2442;48.676;7.986;2022-10-16T07:55:46;15.80;99.90
4856;DHT22;2442;48.676;7.986;2022-10-16T07:58:13;15.80;99.90
4856;DHT22;2442;48.676;7.986;2022-10-16T08:00:40;15.90;99.90
4856;DHT22;2442;48.676;7.986;2022-10-16T08:03:08;15.90;99.90
4856;DHT22;2442;48.676;7.986;2022-10-16T08:05:35;15.90;99.90
4856;DHT22;2442;48.676;7.986;2022-10-16T08:08:02;16.00;99.90
4856;DHT22;2442;48.676;7.986;2022-10-16T08:10:29;16.00;99.90
4856;DHT22;2442;48.676;7.986;2022-10-16T08:12:58;16.20;99.90
4856;DHT22;2442;48.676;7.986;2022-10-16T08:15:25;16.20;99.90
4856;DHT22;2442;48.676;7.986;2022-10-16T08:17:57;16.40;99.90
4856;DHT22;2442;48.676;7.986;2022-10-16T08:20:25;16.40;99.90
4856;DHT22;2442;48.676;7.986;2022-10-16T08:22:53;16.50;99.90
4856;DHT22;2442;48.676;7.986;2022-10-16T08:25:21;16.60;99.90
4856;DHT22;2442;48.676;7.986;2022-10-16T08:27:48;16.70;99.90
4856;DHT22;2442;48.676;7.986;2022-10-16T08:30:18;16.70;99.90
4856;DHT22;2442;48.676;7.986;2022-10-16T08:32:47;16.80;99.90
4856;DHT22;2442;48.676;7.986;2022-10-16T08:35:14;16.90;99.90
4856;DHT22;2442;48.676;7.986;2022-10-16T08:37:42;17.00;99.90
4856;DHT22;2442;48.676;7.986;2022-10-16T08:40:16;17.10;99.90
4856;DHT22;2442;48.676;7.986;2022-10-16T08:42:57;17.20;99.90
4856;DHT22;2442;48.676;7.986;2022-10-16T08:46:04;17.20;99.90
4856;DHT22;2442;48.676;7.986;2022-10-16T08:48:45;17.30;99.90
4856;DHT22;2442;48.676;7.986;2022-10-16T08:51:19;17.20;99.90
4856;DHT22;2442;48.676;7.986;2022-10-16T08:53:51;17.30;99.90
4856;DHT22;2442;48.676;7.986;2022-10-16T08:56:20;17.30;99.90
4856;DHT22;2442;48.676;7.986;2022-10-16T08:58:48;17.30;99.90
4856;DHT22;2442;48.676;7.986;2022-10-16T09:01:19;17.50;99.90
4856;DHT22;2442;48.676;7.986;2022-10-16T09:04:11;17.50;99.90
4856;DHT22;2442;48.676;7.986;2022-10-16T09:07:06;17.60;99.90
4856;DHT22;2442;48.676;7.986;2022-10-16T09:09:47;17.60;99.90
4856;DHT22;2442;48.676;7.986;2022-10-16T09:12:23;17.80;99.90
4856;DHT22;2442;48.676;7.986;2022-10-16T09:15:01;17.80;99.90
4856;DHT22;2442;48.676;7.986;2022-10-16T09:17:45;17.70;99.90
4856;DHT22;2442;48.676;7.986;2022-10-16T09:20:36;17.70;99.90
4856;DHT22;2442;48.676;7.986;2022-10-16T09:23:15;17.70;99.90
4856;DHT22;2442;48.676;7.986;2022-10-16T09:25:45;17.70;99.90
4856;DHT22;2442;48.676;7.986;2022-10-16T09:28:15;17.70;99.90
4856;DHT22;2442;48.676;7.986;2022-10-16T09:30:43;17.80;99.90
4856;DHT22;2442;48.676;7.986;2022-10-16T09:33:12;17.80;99.90
4856;DHT22;2442;48.676;7.986;2022-10-16T09:35:42;17.80;99.90
4856;DHT22;2442;48.676;7.986;2022-10-16T09:38:22;17.70;99.90
4856;DHT22;2442;48.676;7.986;2022-10-16T09:40:52;17.80;99.90
4856;DHT22;2442;48.676;7.986;2022-10-16T09:43:24;17.80;99.90
4856;DHT22;2442;48.676;7.986;2022-10-16T09:45:58;17.80;99.90
4856;DHT22;2442;48.676;7.986;2022-10-16T09:48:33;17.70;99.90
4856;DHT22;2442;48.676;7.986;2022-10-16T09:51:05;17.90;99.90
4856;DHT22;2442;48.676;7.986;2022-10-16T09:53:41;17.90;99.90
4856;DHT22;2442;48.676;7.986;2022-10-16T09:56:10;17.90;99.90
4856;DHT22;2442;48.676;7.986;2022-10-16T09:58:42;18.00;99.90
4856;DHT22;2442;48.676;7.986;2022-10-16T10:01:14;18.20;99.90
4856;DHT22;2442;48.676;7.986;2022-10-16T10:03:43;18.30;99.90
4856;DHT22;2442;48.676;7.986;2022-10-16T10:06:18;18.40;99.90
4856;DHT22;2442;48.676;7.986;2022-10-16T10:08:54;18.60;99.90
4856;DHT22;2442;48.676;7.986;2022-10-16T10:11:40;18.70;99.90
4856;DHT22;2442;48.676;7.986;2022-10-16T10:14:20;18.80;99.90
4856;DHT22;2442;48.676;7.986;2022-10-16T10:17:12;19.00;99.90
4856;DHT22;2442;48.676;7.986;2022-10-16T10:19:47;19.20;99.90
4856;DHT22;2442;48.676;7.986;2022-10-16T10:22:23;19.30;99.90
4856;DHT22;2442;48.676;7.986;2022-10-16T10:25:12;19.50;99.90
4856;DHT22;2442;48.676;7.986;2022-10-16T10:28:09;19.50;99.90
4856;DHT22;2442;48.676;7.986;2022-10-16T10:30:50;19.40;99.90
4856;DHT22;2442;48.676;7.986;2022-10-16T10:33:28;19.60;99.90
4856;DHT22;2442;48.676;7.986;2022-10-16T10:36:09;19.70;99.90
4856;DHT22;2442;48.676;7.986;2022-10-16T10:38:48;19.70;99.90
4856;DHT22;2442;48.676;7.986;2022-10-16T10:44:50;20.10;99.90
4856;DHT22;2442;48.676;7.986;2022-10-16T10:47:30;20.10;99.90
4856;DHT22;2442;48.676;7.986;2022-10-16T10:50:10;20.40;99.90
4856;DHT22;2442;48.676;7.986;2022-10-16T10:52:57;20.40;99.90
4856;DHT22;2442;48.676;7.986;2022-10-16T10:55:33;20.60;99.90
4856;DHT22;2442;48.676;7.986;2022-10-16T10:58:26;20.80;99.90
4856;DHT22;2442;48.676;7.986;2022-10-16T11:01:04;20.90;99.90
4856;DHT22;2442;48.676;7.986;2022-10-16T11:03:53;20.90;99.90
4856;DHT22;2442;48.676;7.986;2022-10-16T11:06:30;20.80;99.90
4856;DHT22;2442;48.676;7.986;2022-10-16T11:09:09;20.80;99.90
4856;DHT22;2442;48.676;7.986;2022-10-16T11:11:41;20.80;99.90
4856;DHT22;2442;48.676;7.986;2022-10-16T11:14:16;20.90;99.90
4856;DHT22;2442;48.676;7.986;2022-10-16T11:16:52;20.80;99.90
4856;DHT22;2442;48.676;7.986;2022-10-16T11:19:35;20.90;99.90
4856;DHT22;2442;48.676;7.986;2022-10-16T11:22:08;21.00;99.90
4856;DHT22;2442;48.676;7.986;2022-10-16T11:24:45;21.10;99.90
4856;DHT22;2442;48.676;7.986;2022-10-16T11:27:17;21.00;99.90
4856;DHT22;2442;48.676;7.986;2022-10-16T11:29:52;21.00;99.90
4856;DHT22;2442;48.676;7.986;2022-10-16T11:32:25;20.80;99.90
4856;DHT22;2442;48.676;7.986;2022-10-16T11:35:00;20.80;99.90
4856;DHT22;2442;48.676;7.986;2022-10-16T11:37:32;20.70;99.90
4856;DHT22;2442;48.676;7.986;2022-10-16T11:40:18;20.60;99.90
4856;DHT22;2442;48.676;7.986;2022-10-16T11:42:52;20.50;99.90
4856;DHT22;2442;48.676;7.986;2022-10-16T11:45:29;20.50;99.90
4856;DHT22;2442;48.676;7.986;2022-10-16T11:48:04;20.50;99.90
4856;DHT22;2442;48.676;7.986;2022-10-16T11:50:38;20.50;99.90
4856;DHT22;2442;48.676;7.986;2022-10-16T11:53:16;20.40;99.90
4856;DHT22;2442;48.676;7.986;2022-10-16T11:55:48;20.40;99.90
4856;DHT22;2442;48.676;7.986;2022-10-16T11:58:22;20.20;99.90
4856;DHT22;2442;48.676;7.986;2022-10-16T12:00:58;20.20;99.90
4856;DHT22;2442;48.676;7.986;2022-10-16T12:03:31;20.40;99.90
4856;DHT22;2442;48.676;7.986;2022-10-16T12:06:12;20.40;99.90
4856;DHT22;2442;48.676;7.986;2022-10-16T12:08:44;20.40;99.90
4856;DHT22;2442;48.676;7.986;2022-10-16T12:11:24;20.50;99.90
4856;DHT22;2442;48.676;7.986;2022-10-16T12:14:07;20.70;99.90
4856;DHT22;2442;48.676;7.986;2022-10-16T12:16:54;20.90;99.90
4856;DHT22;2442;48.676;7.986;2022-10-16T12:19:23;21.10;99.90
4856;DHT22;2442;48.676;7.986;2022-10-16T12:21:55;21.10;99.90
4856;DHT22;2442;48.676;7.986;2022-10-16T12:24:34;21.20;99.90
4856;DHT22;2442;48.676;7.986;2022-10-16T12:27:06;21.20;99.90
4856;DHT22;2442;48.676;7.986;2022-10-16T12:29:55;21.30;99.90
4856;DHT22;2442;48.676;7.986;2022-10-16T12:32:29;21.40;99.90
4856;DHT22;2442;48.676;7.986;2022-10-16T12:34:58;21.30;99.90
4856;DHT22;2442;48.676;7.986;2022-10-16T12:37:27;21.50;99.90
4856;DHT22;2442;48.676;7.986;2022-10-16T12:39:58;21.50;99.90
4856;DHT22;2442;48.676;7.986;2022-10-16T12:42:34;21.60;99.90
4856;DHT22;2442;48.676;7.986;2022-10-16T12:45:12;21.60;99.90
4856;DHT22;2442;48.676;7.986;2022-10-16T12:47:51;21.30;99.90
4856;DHT22;2442;48.676;7.986;2022-10-16T12:50:30;20.80;99.90
4856;DHT22;2442;48.676;7.986;2022-10-16T12:53:00;20.50;99.90
4856;DHT22;2442;48.676;7.986;2022-10-16T12:55:34;20.40;99.90
4856;DHT22;2442;48.676;7.986;2022-10-16T12:58:26;20.40;99.90
4856;DHT22;2442;48.676;7.986;2022-10-16T13:01:07;20.60;99.90
4856;DHT22;2442;48.676;7.986;2022-10-16T13:06:54;20.90;99.90
4856;DHT22;2442;48.676;7.986;2022-10-16T13:09:39;21.00;99.90
4856;DHT22;2442;48.676;7.986;2022-10-16T13:12:38;21.00;99.90
4856;DHT22;2442;48.676;7.986;2022-10-16T13:15:46;21.00;99.90
4856;DHT22;2442;48.676;7.986;2022-10-16T13:18:23;21.20;99.90
4856;DHT22;2442;48.676;7.986;2022-10-16T13:21:03;21.30;99.90
4856;DHT22;2442;48.676;7.986;2022-10-16T13:23:38;21.20;99.90
4856;DHT22;2442;48.676;7.986;2022-10-16T13:26:16;21.20;99.90
4856;DHT22;2442;48.676;7.986;2022-10-16T13:28:48;21.30;99.90
4856;DHT22;2442;48.676;7.986;2022-10-16T13:31:20;21.30;99.90
4856;DHT22;2442;48.676;7.986;2022-10-16T13:33:51;21.20;99.90
4856;DHT22;2442;48.676;7.986;2022-10-16T13:36:22;21.30;99.90
4856;DHT22;2442;48.676;7.986;2022-10-16T13:39:01;21.40;99.90
4856;DHT22;2442;48.676;7.986;2022-10-16T13:41:36;21.70;99.90
4856;DHT22;2442;48.676;7.986;2022-10-16T13:44:03;21.90;99.90
4856;DHT22;2442;48.676;7.986;2022-10-16T13:46:32;22.10;99.90
4856;DHT22;2442;48.676;7.986;2022-10-16T13:49:02;22.10;99.90
4856;DHT22;2442;48.676;7.986;2022-10-16T13:51:31;22.20;99.90
4856;DHT22;2442;48.676;7.986;2022-10-16T13:53:59;22.30;99.90
4856;DHT22;2442;48.676;7.986;2022-10-16T13:56:28;22.60;99.90
4856;DHT22;2442;48.676;7.986;2022-10-16T13:59:01;22.80;99.90
4856;DHT22;2442;48.676;7.986;2022-10-16T14:01:31;22.80;99.90
4856;DHT22;2442;48.676;7.986;2022-10-16T14:04:05;22.80;99.90
4856;DHT22;2442;48.676;7.986;2022-10-16T14:06:33;22.80;99.90
4856;DHT22;2442;48.676;7.986;2022-10-16T14:09:05;22.80;99.90
4856;DHT22;2442;48.676;7.986;2022-10-16T14:11:37;22.60;99.90
4856;DHT22;2442;48.676;7.986;2022-10-16T14:14:11;22.60;99.90
4856;DHT22;2442;48.676;7.986;2022-10-16T14:16:42;22.50;99.90
4856;DHT22;2442;48.676;7.986;2022-10-16T14:19:15;22.40;99.90
4856;DHT22;2442;48.676;7.986;2022-10-16T14:21:45;22.40;99.90
4856;DHT22;2442;48.676;7.986;2022-10-16T14:24:14;22.30;99.90
4856;DHT22;2442;48.676;7.986;2022-10-16T14:26:51;22.40;99.90
4856;DHT22;2442;48.676;7.986;2022-10-16T14:29:20;22.30;99.90
4856;DHT22;2442;48.676;7.986;2022-10-16T14:31:56;22.30;99.90
4856;DHT22;2442;48.676;7.986;2022-10-16T14:34:26;22.40;99.90
4856;DHT22;2442;48.676;7.986;2022-10-16T14:36:56;22.50;99.90
4856;DHT22;2442;48.676;7.986;2022-10-16T14:39:24;22.50;99.90
4856;DHT22;2442;48.676;7.986;2022-10-16T14:41:54;22.60;99.90
4856;DHT22;2442;48.676;7.986;2022-10-16T14:44:28;22.40;99.90
4856;DHT22;2442;48.676;7.986;2022-10-16T14:46:58;22.30;99.90
4856;DHT22;2442;48.676;7.986;2022-10-16T14:49:26;22.20;99.90
4856;DHT22;2442;48.676;7.986;2022-10-16T14:51:53;22.20;99.90
4856;DHT22;2442;48.676;7.986;2022-10-16T14:54:21;22.10;99.90
4856;DHT22;2442;48.676;7.986;2022-10-16T14:56:50;22.10;99.90
4856;DHT22;2442;48.676;7.986;2022-10-16T14:59:23;22.00;99.90
4856;DHT22;2442;48.676;7.986;2022-10-16T15:01:54;22.00;99.90
4856;DHT22;2442;48.676;7.986;2022-10-16T15:04:23;22.00;99.90
4856;DHT22;2442;48.676;7.986;2022-10-16T15:06:50;22.00;99.90
4856;DHT22;2442;48.676;7.986;2022-10-16T15:09:17;22.10;99.90
4856;DHT22;2442;48.676;7.986;2022-10-16T15:11:44;22.10;99.90
4856;DHT22;2442;48.676;7.986;2022-10-16T15:14:12;22.20;99.90
4856;DHT22;2442;48.676;7.986;2022-10-16T15:16:39;22.10;99.90
4856;DHT22;2442;48.676;7.986;2022-10-16T15:19:06;22.10;99.90
4856;DHT22;2442;48.676;7.986;2022-10-16T15:21:35;22.00;99.90
4856;DHT22;2442;48.676;7.986;2022-10-16T15:24:02;21.90;99.90
4856;DHT22;2442;48.676;7.986;2022-10-16T15:26:29;21.90;99.90
4856;DHT22;2442;48.676;7.986;2022-10-16T15:28:56;21.80;99.90
4856;DHT22;2442;48.676;7.986;2022-10-16T15:31:24;21.90;99.90
4856;DHT22;2442;48.676;7.986;2022-10-16T15:33:52;21.80;99.90
4856;DHT22;2442;48.676;7.986;2022-10-16T15:36:27;21.80;99.90
4856;DHT22;2442;48.676;7.986;2022-10-16T15:38:56;21.70;99.90
4856;DHT22;2442;48.676;7.986;2022-10-16T15:41:23;21.60;99.90
4856;DHT22;2442;48.676;7.986;2022-10-16T15:43:51;21.50;99.90
4856;DHT22;2442;48.676;7.986;2022-10-16T15:46:19;21.40;99.90
4856;DHT22;2442;48.676;7.986;2022-10-16T15:48:48;21.40;99.90
4856;DHT22;2442;48.676;7.986;2022-10-16T15:51:16;21.20;99.90
4856;DHT22;2442;48.676;7.986;2022-10-16T15:53:45;21.10;99.90
4856;DHT22;2442;48.676;7.986;2022-10-16T15:56:14;21.00;99.90
4856;DHT22;2442;48.676;7.986;2022-10-16T15:58:41;20.90;99.90
4856;DHT22;2442;48.676;7.986;2022-10-16T16:01:09;20.80;99.90
4856;DHT22;2442;48.676;7.986;2022-10-16T16:03:37;20.80;99.90
4856;DHT22;2442;48.676;7.986;2022-10-16T16:06:07;20.60;99.90
4856;DHT22;2442;48.676;7.986;2022-10-16T16:08:35;20.50;99.90
4856;DHT22;2442;48.676;7.986;2022-10-16T16:11:05;20.40;99.90
4856;DHT22;2442;48.676;7.986;2022-10-16T16:13:35;20.40;99.90
4856;DHT22;2442;48.676;7.986;2022-10-16T16:16:06;20.20;99.90
4856;DHT22;2442;48.676;7.986;2022-10-16T16:18:35;20.10;99.90
4856;DHT22;2442;48.676;7.986;2022-10-16T16:21:02;19.80;99.90
4856;DHT22;2442;48.676;7.986;2022-10-16T16:23:30;19.70;99.90
4856;DHT22;2442;48.676;7.986;2022-10-16T16:26:05;19.70;99.90
4856;DHT22;2442;48.676;7.986;2022-10-16T16:28:37;19.60;99.90
4856;DHT22;2442;48.676;7.986;2022-10-16T16:31:04;19.50;99.90
4856;DHT22;2442;48.676;7.986;2022-10-16T16:33:32;19.40;99.90
4856;DHT22;2442;48.676;7.986;2022-10-16T16:35:59;19.30;99.90